Ana Sayfa
METAR-TAF:

METAR-TAF

Havaalanları :

Westminster, Maryland, Amerika Birleşik Devletleri

Enlem: 39-36-30N, Boylam: 077-00-28W, yükseklik: 240 m

Güncel hava durumu gözlemi

Rapor saat 05:35 UTC de 28 dakika önce yapıldı.
Rüzgar batı/kuzeybatıdan 5 kt
Sıcaklık -2°C
Nem 69%
Basınç 1034 hPa
Görüş mesafesi: 16.1 km
Açık gökyüzü

METAR: KDMW 120535Z AUTO 29005KT 10SM CLR M02/M07 A3054 RMK AO2

Saat: 01:03 (06:03 UTC)


TAF: eksik

4.000'den fazla havaalanı için hava durumu gözlemleri ve tahminleri (METAR ve TAF raporları).

Kullanılabilir istasyonlar harita üzerinde sarı ve kırmızı noktalarla gösterilir.

İstasyonun adını görmek için fareyi noktanın üzerinde gezdirin.

Sonrasında hava gözlem ve tahminlerini görmek için tıklayın.

Haritayı değiştirmek için: yaklaştırmak için siyah artı işaretli yeşil düğmeye ve uzaklaştırmak için de eksi işaretli düğmeye hızla tıklayın; bitişik haritalar için yeşil okları kullanın.


METAR-TAF: